createdAt,value
2019-02-28T00:01:03.848Z,68.53
2019-02-28T00:03:32.782Z,69.50
2019-02-28T00:06:01.168Z,71.67
2019-02-28T00:08:29.564Z,71.00
2019-02-28T00:10:57.958Z,72.14
2019-02-28T00:13:26.618Z,69.80
2019-02-28T00:15:55.243Z,70.28
2019-02-28T00:18:23.975Z,71.17
2019-02-28T00:20:52.672Z,70.31
2019-02-28T00:23:22.020Z,69.07
2019-02-28T00:25:51.777Z,69.24
2019-02-28T00:28:23.083Z,72.49
2019-02-28T00:30:50.503Z,74.26
2019-02-28T00:33:18.899Z,76.01
2019-02-28T00:35:47.279Z,75.60
2019-02-28T00:38:15.679Z,78.49
2019-02-28T00:40:44.074Z,77.90
2019-02-28T00:43:12.779Z,76.68
2019-02-28T00:45:41.175Z,79.83
2019-02-28T00:48:09.563Z,80.03
2019-02-28T00:50:37.956Z,79.21
2019-02-28T00:53:07.365Z,80.10
2019-02-28T00:55:36.462Z,79.19
2019-02-28T00:58:05.171Z,76.20
2019-02-28T01:00:37.045Z,75.77
2019-02-28T01:03:03.695Z,76.08
2019-02-28T01:05:32.086Z,78.37
2019-02-28T01:08:00.766Z,77.23
2019-02-28T01:11:10.421Z,78.55
2019-02-28T01:14:01.595Z,75.75
2019-02-28T01:16:28.635Z,75.27
2019-02-28T01:18:57.078Z,77.09
2019-02-28T01:21:25.714Z,77.67
2019-02-28T01:23:54.427Z,77.55
2019-02-28T01:26:22.835Z,79.05
2019-02-28T01:28:51.492Z,78.88
2019-02-28T01:31:20.182Z,78.98
2019-02-28T01:33:48.583Z,79.51
2019-02-28T01:36:16.985Z,79.48
2019-02-28T01:38:45.383Z,79.54
2019-02-28T01:41:14.102Z,79.53
2019-02-28T01:43:42.496Z,80.87
2019-02-28T01:46:10.898Z,80.26
2019-02-28T01:48:39.292Z,81.96
2019-02-28T01:51:07.760Z,80.32
2019-02-28T01:53:36.151Z,80.74
2019-02-28T01:56:04.786Z,80.45
2019-02-28T01:58:33.467Z,78.86
2019-02-28T02:04:12.595Z,80.66
2019-02-28T02:06:40.122Z,81.86
2019-02-28T02:09:48.437Z,81.56
2019-02-28T02:12:16.866Z,82.63
2019-02-28T02:14:45.815Z,80.16
2019-02-28T02:17:15.775Z,79.83
2019-02-28T02:19:44.167Z,80.84
2019-02-28T02:22:12.847Z,81.01
2019-02-28T02:24:41.244Z,80.80
2019-02-28T02:27:09.911Z,81.69
2019-02-28T02:29:38.316Z,81.42
2019-02-28T02:32:06.955Z,79.29
2019-02-28T02:34:35.346Z,78.68
2019-02-28T02:37:03.744Z,79.78
2019-02-28T02:39:32.419Z,80.24
2019-02-28T02:42:01.103Z,81.33
2019-02-28T02:44:31.823Z,80.52
2019-02-28T02:46:59.925Z,81.28
2019-02-28T02:49:28.308Z,81.98
2019-02-28T02:51:56.720Z,80.79
2019-02-28T02:54:25.396Z,82.84
2019-02-28T02:56:54.046Z,83.68
2019-02-28T02:59:22.444Z,83.28
2019-02-28T03:01:50.837Z,85.38
2019-02-28T03:04:22.945Z,85.26
2019-02-28T03:06:49.704Z,85.01
2019-02-28T03:09:18.108Z,85.15
2019-02-28T03:11:46.492Z,84.90
2019-02-28T03:14:16.421Z,84.88
2019-02-28T03:16:45.249Z,85.74
2019-02-28T03:19:13.951Z,84.82
2019-02-28T03:21:42.348Z,85.29
2019-02-28T03:24:14.613Z,86.74
2019-02-28T03:26:42.002Z,86.26
2019-02-28T03:29:11.277Z,87.60
2019-02-28T03:31:39.951Z,87.12
2019-02-28T03:34:12.920Z,86.93
2019-02-28T03:36:38.700Z,86.38
2019-02-28T03:39:47.236Z,86.63
2019-02-28T03:42:15.653Z,87.19
2019-02-28T03:44:44.330Z,86.26
2019-02-28T03:47:12.739Z,88.02
2019-02-28T03:49:48.391Z,86.64
2019-02-28T03:52:11.247Z,87.97
2019-02-28T03:54:39.651Z,88.58
2019-02-28T03:57:08.182Z,89.10
2019-02-28T03:59:36.589Z,88.09
2019-02-28T04:02:04.980Z,88.59
2019-02-28T04:04:33.448Z,88.46
2019-02-28T04:07:02.225Z,88.79
2019-02-28T04:09:30.889Z,88.79
2019-02-28T04:12:06.982Z,89.36
2019-02-28T04:14:33.038Z,89.30
2019-02-28T04:16:59.813Z,90.26
2019-02-28T04:19:28.278Z,91.24
2019-02-28T04:21:56.667Z,90.37
2019-02-28T04:24:25.085Z,90.91
2019-02-28T04:26:53.731Z,90.78
2019-02-28T04:29:26.277Z,90.80
2019-02-28T04:31:52.851Z,90.14
2019-02-28T04:34:21.244Z,91.72
2019-02-28T04:36:49.648Z,91.30
2019-02-28T04:39:18.288Z,91.98
2019-02-28T04:41:46.696Z,92.36
2019-02-28T04:44:15.401Z,91.27
2019-02-28T04:46:45.209Z,90.67
2019-02-28T04:49:13.844Z,89.88
2019-02-28T04:51:42.231Z,91.40
2019-02-28T04:54:10.634Z,91.72
2019-02-28T04:56:39.032Z,92.16
2019-02-28T04:59:07.437Z,91.58
2019-02-28T05:01:36.156Z,92.66
2019-02-28T05:04:04.546Z,92.57
2019-02-28T05:06:33.219Z,92.43
2019-02-28T05:09:01.860Z,93.16
2019-02-28T05:11:31.464Z,93.23
2019-02-28T05:14:01.058Z,93.29
2019-02-28T05:16:29.702Z,92.54
2019-02-28T05:19:01.419Z,93.06
2019-02-28T05:21:50.668Z,93.40
2019-02-28T05:24:18.010Z,92.55
2019-02-28T05:26:46.666Z,92.88
2019-02-28T05:29:15.292Z,93.95
2019-02-28T05:31:43.708Z,93.38
2019-02-28T05:34:13.165Z,93.74
2019-02-28T05:36:42.453Z,94.31
2019-02-28T05:39:31.011Z,92.34
2019-02-28T05:42:00.303Z,92.79
2019-02-28T05:44:28.695Z,95.25
2019-02-28T05:46:58.097Z,95.95
2019-02-28T05:49:27.213Z,96.29
2019-02-28T05:51:58.687Z,97.06
2019-02-28T05:54:25.709Z,97.96
2019-02-28T05:56:54.120Z,97.28
2019-02-28T05:59:26.005Z,97.19
2019-02-28T06:01:52.624Z,97.21
2019-02-28T06:04:21.016Z,97.70
2019-02-28T06:06:51.485Z,96.66
2019-02-28T06:09:19.545Z,98.01
2019-02-28T06:11:48.182Z,97.94
2019-02-28T06:14:16.895Z,97.73
2019-02-28T06:16:46.721Z,97.49
2019-02-28T06:22:10.699Z,98.11
2019-02-28T06:24:39.092Z,98.07
2019-02-28T06:27:07.658Z,98.17
2019-02-28T06:29:36.778Z,98.48
2019-02-28T06:32:06.194Z,97.40
2019-02-28T06:34:34.582Z,97.06
2019-02-28T06:37:03.688Z,95.82
2019-02-28T06:39:33.105Z,96.34
2019-02-28T06:42:01.482Z,97.07
2019-02-28T06:44:29.888Z,93.90
2019-02-28T06:46:58.514Z,94.52
2019-02-28T06:49:27.167Z,93.38
2019-02-28T06:51:55.851Z,93.01
2019-02-28T06:54:24.539Z,92.72
2019-02-28T06:56:54.031Z,92.66
2019-02-28T06:59:23.088Z,91.49
2019-02-28T07:01:56.195Z,91.35
2019-02-28T07:04:21.851Z,88.94
2019-02-28T07:06:50.475Z,90.13
2019-02-28T07:09:18.880Z,88.67
2019-02-28T07:11:47.502Z,87.26
2019-02-28T07:14:15.900Z,87.21
2019-02-28T07:16:44.307Z,87.46
2019-02-28T07:19:12.935Z,86.03
2019-02-28T07:21:43.873Z,85.80
2019-02-28T07:24:11.691Z,85.06
2019-02-28T07:26:40.338Z,84.73
2019-02-28T07:29:28.069Z,85.06
2019-02-28T07:31:59.960Z,85.17
2019-02-28T07:34:26.583Z,83.32
2019-02-28T07:36:55.241Z,83.67
2019-02-28T07:39:23.650Z,83.50
2019-02-28T07:41:52.030Z,82.67
2019-02-28T07:44:22.218Z,83.10
2019-02-28T07:46:50.807Z,81.12
2019-02-28T07:49:19.486Z,80.50
2019-02-28T07:51:47.888Z,78.16
2019-02-28T07:54:16.691Z,76.25
2019-02-28T07:56:46.370Z,75.42
2019-02-28T07:59:14.994Z,76.36
2019-02-28T08:01:43.451Z,75.01
2019-02-28T08:04:11.859Z,75.78
2019-02-28T08:06:40.489Z,75.13
2019-02-28T08:09:30.287Z,75.92
2019-02-28T08:11:58.656Z,72.88
2019-02-28T08:14:27.047Z,71.40
2019-02-28T08:16:55.820Z,70.33
2019-02-28T08:19:27.178Z,70.77
2019-02-28T08:21:54.627Z,70.96
2019-02-28T08:24:23.010Z,71.32
2019-02-28T08:26:53.510Z,70.59
2019-02-28T08:29:22.049Z,70.44
2019-02-28T08:31:50.464Z,69.11
2019-02-28T08:34:20.571Z,69.41
2019-02-28T08:36:49.507Z,67.34
2019-02-28T08:39:57.818Z,68.24
2019-02-28T08:42:26.438Z,68.12
2019-02-28T08:44:58.950Z,68.33
2019-02-28T08:47:25.456Z,68.36
2019-02-28T08:49:53.834Z,68.71
2019-02-28T08:52:22.480Z,68.60
2019-02-28T08:54:50.863Z,67.90
2019-02-28T08:57:22.018Z,67.12
2019-02-28T08:59:49.364Z,66.80
2019-02-28T09:02:18.979Z,66.07
2019-02-28T09:04:50.853Z,65.26
2019-02-28T09:07:18.511Z,64.05
2019-02-28T09:09:46.895Z,63.22
2019-02-28T09:12:15.295Z,62.23
2019-02-28T09:14:43.932Z,60.77
2019-02-28T09:17:12.336Z,60.36
2019-02-28T09:20:00.352Z,59.84
2019-02-28T09:23:08.920Z,60.89
2019-02-28T09:25:37.305Z,60.92
2019-02-28T09:28:47.503Z,61.51
2019-02-28T09:31:15.981Z,57.90
2019-02-28T09:33:44.683Z,58.13
2019-02-28T09:36:32.419Z,58.81
2019-02-28T09:39:00.811Z,58.81
2019-02-28T09:41:29.218Z,59.11
2019-02-28T09:44:00.206Z,58.51
2019-02-28T09:46:28.206Z,57.76
2019-02-28T09:48:56.859Z,56.69
2019-02-28T09:51:44.584Z,55.78
2019-02-28T09:54:13.052Z,55.78
2019-02-28T09:57:01.235Z,54.97
2019-02-28T09:59:29.604Z,54.97
2019-02-28T10:02:17.636Z,54.04
2019-02-28T10:04:46.040Z,53.15
2019-02-28T10:07:14.435Z,52.85
2019-02-28T10:09:44.354Z,52.76
2019-02-28T10:12:13.204Z,51.64
2019-02-28T10:14:41.610Z,50.38
2019-02-28T10:17:10.046Z,49.52
2019-02-28T10:19:45.575Z,48.51
2019-02-28T10:22:10.102Z,48.97
2019-02-28T10:24:39.291Z,48.31
2019-02-28T10:27:07.975Z,47.25
2019-02-28T10:29:38.456Z,47.06
2019-02-28T10:32:08.961Z,47.81
2019-02-28T10:34:36.897Z,47.05
2019-02-28T10:37:05.292Z,47.05
2019-02-28T10:39:33.676Z,47.00
2019-02-28T10:42:05.213Z,47.07
2019-02-28T10:44:32.456Z,46.93
2019-02-28T10:47:01.155Z,47.02
2019-02-28T10:49:29.554Z,46.85
2019-02-28T10:51:58.216Z,46.98
2019-02-28T10:54:26.913Z,47.39
2019-02-28T10:56:55.536Z,46.91
2019-02-28T10:59:24.500Z,47.07
2019-02-28T11:01:54.595Z,47.01
2019-02-28T11:04:23.288Z,47.34
2019-02-28T11:06:51.967Z,46.69
2019-02-28T11:09:21.408Z,46.68
2019-02-28T11:11:50.533Z,46.09
2019-02-28T11:14:18.928Z,45.91
2019-02-28T11:16:47.632Z,46.06
2019-02-28T11:19:18.631Z,45.14
2019-02-28T11:21:46.440Z,45.01
2019-02-28T11:24:14.965Z,45.00
2019-02-28T11:26:44.887Z,44.53
2019-02-28T11:29:13.839Z,43.70
2019-02-28T11:31:42.616Z,44.09
2019-02-28T11:34:14.787Z,44.46
2019-02-28T11:36:41.516Z,44.28
2019-02-28T11:39:50.116Z,43.76
2019-02-28T11:42:18.727Z,45.08
2019-02-28T11:44:47.706Z,43.19
2019-02-28T11:47:17.244Z,42.79
2019-02-28T11:49:45.717Z,42.40
2019-02-28T11:52:15.953Z,41.64
2019-02-28T11:54:45.331Z,41.53
2019-02-28T11:57:15.354Z,41.19
2019-02-28T11:59:43.744Z,41.04
2019-02-28T12:02:12.148Z,41.29
2019-02-28T12:04:41.198Z,40.95
2019-02-28T12:07:10.660Z,40.74
2019-02-28T12:09:39.055Z,40.21
2019-02-28T12:12:10.415Z,39.74
2019-02-28T12:14:37.636Z,40.58
2019-02-28T12:17:06.393Z,39.84
2019-02-28T12:19:35.062Z,39.69
2019-02-28T12:22:03.754Z,39.36
2019-02-28T12:24:33.181Z,39.02
2019-02-28T12:27:04.101Z,39.39
2019-02-28T12:29:32.991Z,39.68
2019-02-28T12:32:01.666Z,39.53
2019-02-28T12:34:30.085Z,39.21
2019-02-28T12:36:59.875Z,39.16
2019-02-28T12:39:28.865Z,39.42
2019-02-28T12:41:59.514Z,39.15
2019-02-28T12:44:27.771Z,39.21
2019-02-28T12:46:56.154Z,39.63
2019-02-28T12:49:26.162Z,38.99
2019-02-28T12:51:55.470Z,39.01
2019-02-28T12:54:25.964Z,38.80
2019-02-28T12:56:54.238Z,39.35
2019-02-28T12:59:46.046Z,40.45
2019-02-28T13:02:12.398Z,41.11
2019-02-28T13:05:00.470Z,41.92
2019-02-28T13:07:30.424Z,42.73
2019-02-28T13:09:59.673Z,43.52
2019-02-28T13:12:28.296Z,43.55
2019-02-28T13:14:57.153Z,43.93
2019-02-28T13:17:28.324Z,44.40
2019-02-28T13:19:56.563Z,43.95
2019-02-28T13:22:26.076Z,44.58
2019-02-28T13:24:54.630Z,45.16
2019-02-28T13:27:23.276Z,45.41
2019-02-28T13:29:53.226Z,44.74
2019-02-28T13:32:22.044Z,45.38
2019-02-28T13:34:50.453Z,45.18
2019-02-28T13:37:18.839Z,45.74
2019-02-28T13:39:47.242Z,45.29
2019-02-28T13:42:15.968Z,45.42
2019-02-28T13:44:44.371Z,46.10
2019-02-28T13:47:13.152Z,46.26
2019-02-28T13:49:41.821Z,46.29
2019-02-28T13:52:10.292Z,46.02
2019-02-28T13:54:42.148Z,45.83
2019-02-28T13:57:10.033Z,46.11
2019-02-28T13:59:39.253Z,45.61
2019-02-28T14:02:07.617Z,45.58
2019-02-28T14:04:36.016Z,45.50
2019-02-28T14:07:04.674Z,45.43
2019-02-28T14:09:33.315Z,45.51
2019-02-28T14:12:01.773Z,44.93
2019-02-28T14:14:30.161Z,44.66
2019-02-28T14:17:01.322Z,44.75
2019-02-28T14:19:28.738Z,45.04
2019-02-28T14:21:57.150Z,45.17
2019-02-28T14:24:27.507Z,45.25
2019-02-28T14:26:55.993Z,45.14
2019-02-28T14:29:24.586Z,44.28
2019-02-28T14:31:52.983Z,44.06
2019-02-28T14:34:21.458Z,44.92
2019-02-28T14:36:49.848Z,43.75
2019-02-28T14:39:18.234Z,43.81
2019-02-28T14:41:46.890Z,44.48
2019-02-28T14:44:15.585Z,44.69
2019-02-28T14:46:43.989Z,44.26
2019-02-28T14:49:13.401Z,44.13
2019-02-28T14:51:42.756Z,44.13
2019-02-28T14:54:11.445Z,44.53
2019-02-28T14:56:42.246Z,44.35
2019-02-28T14:59:10.556Z,44.54
2019-02-28T15:01:39.249Z,44.28
2019-02-28T15:04:08.716Z,44.46
2019-02-28T15:06:38.129Z,44.63
2019-02-28T15:09:46.416Z,44.90
2019-02-28T15:12:14.817Z,45.16
2019-02-28T15:15:02.544Z,45.44
2019-02-28T15:17:38.712Z,45.14
2019-02-28T15:20:47.808Z,45.58
2019-02-28T15:23:16.556Z,45.62
2019-02-28T15:25:44.949Z,46.10
2019-02-28T15:28:13.926Z,46.44
2019-02-28T15:30:43.526Z,45.50
2019-02-28T15:33:12.224Z,45.18
2019-02-28T15:35:40.627Z,45.30
2019-02-28T15:38:10.434Z,45.37
2019-02-28T15:41:19.348Z,44.97
2019-02-28T15:43:50.318Z,45.31
2019-02-28T15:46:18.149Z,46.71
2019-02-28T15:48:46.836Z,48.72
2019-02-28T15:51:34.876Z,50.94
2019-02-28T15:54:25.177Z,51.90
2019-02-28T15:56:55.390Z,52.61
2019-02-28T15:59:23.392Z,52.81
2019-02-28T16:01:52.149Z,53.21
2019-02-28T16:04:23.535Z,53.20
2019-02-28T16:06:56.629Z,53.46
2019-02-28T16:09:21.401Z,53.85
2019-02-28T16:11:50.953Z,53.87
2019-02-28T16:14:19.337Z,54.20
2019-02-28T16:16:47.738Z,54.85
2019-02-28T16:19:35.468Z,55.27
2019-02-28T16:22:04.164Z,55.46
2019-02-28T16:24:32.852Z,55.73
2019-02-28T16:27:01.253Z,56.06
2019-02-28T16:29:29.912Z,56.16
2019-02-28T16:32:14.121Z,56.55
2019-02-28T16:34:42.471Z,57.54
2019-02-28T16:37:11.135Z,57.97
2019-02-28T16:39:39.533Z,58.46
2019-02-28T16:42:08.402Z,59.10
2019-02-28T16:44:38.312Z,59.74
2019-02-28T16:47:06.716Z,60.13
2019-02-28T16:49:35.101Z,59.73
2019-02-28T16:52:06.074Z,58.96
2019-02-28T16:54:33.975Z,59.36
2019-02-28T16:57:21.700Z,59.83
2019-02-28T16:59:50.409Z,59.83
2019-02-28T17:02:18.787Z,59.71
2019-02-28T17:05:28.356Z,58.17
2019-02-28T17:08:37.230Z,58.17
2019-02-28T17:11:05.932Z,58.59
2019-02-28T17:17:02.109Z,58.72
2019-02-28T17:19:49.858Z,59.33
2019-02-28T17:22:18.240Z,58.79
2019-02-28T17:25:06.543Z,59.76
2019-02-28T17:33:22.568Z,59.17
2019-02-28T17:35:51.259Z,59.39
2019-02-28T17:38:39.013Z,59.52
2019-02-28T17:41:07.432Z,60.29
2019-02-28T17:44:15.732Z,60.29
2019-02-28T17:47:25.690Z,60.19
2019-02-28T17:50:34.116Z,61.05
2019-02-28T17:53:45.713Z,61.87
2019-02-28T17:56:51.114Z,63.46
2019-02-28T17:59:58.088Z,63.46
2019-02-28T18:03:06.442Z,64.32
2019-02-28T18:06:13.662Z,65.26
2019-02-28T18:09:20.650Z,66.83
2019-02-28T18:12:44.246Z,67.77
2019-02-28T18:15:37.701Z,67.77
2019-02-28T18:18:44.689Z,69.02
2019-02-28T18:21:53.222Z,70.94
2019-02-28T18:25:01.819Z,72.79
2019-02-28T18:28:08.808Z,74.16
2019-02-28T18:31:19.249Z,75.68
2019-02-28T18:34:05.487Z,76.62
2019-02-28T18:36:34.268Z,77.05
2019-02-28T18:39:22.324Z,77.91
2019-02-28T18:41:50.891Z,78.57
2019-02-28T18:44:19.284Z,78.48
2019-02-28T18:46:48.902Z,78.04
2019-02-28T18:49:37.424Z,77.69
2019-02-28T18:52:05.829Z,77.74
2019-02-28T18:54:34.490Z,76.79
2019-02-28T18:57:02.880Z,76.68
2019-02-28T18:59:31.557Z,76.16
2019-02-28T19:01:59.946Z,76.57
2019-02-28T19:04:47.683Z,75.66
2019-02-28T19:07:16.352Z,75.84
2019-02-28T19:09:44.756Z,75.71
2019-02-28T19:12:13.403Z,76.07
2019-02-28T19:14:42.108Z,76.43
2019-02-28T19:17:10.505Z,76.68
2019-02-28T19:19:39.173Z,77.11
2019-02-28T19:22:07.572Z,77.02
2019-02-28T19:24:55.588Z,76.91
2019-02-28T19:27:24.276Z,77.59
2019-02-28T19:29:52.661Z,76.92
2019-02-28T19:32:21.284Z,76.33
2019-02-28T19:34:49.684Z,76.35
2019-02-28T19:37:18.067Z,76.28
2019-02-28T19:39:46.714Z,76.21
2019-02-28T19:42:15.094Z,76.09
2019-02-28T19:44:43.739Z,77.06
2019-02-28T19:47:12.135Z,76.61
2019-02-28T19:49:40.820Z,77.22
2019-02-28T19:52:09.493Z,77.21
2019-02-28T19:54:37.877Z,77.43
2019-02-28T19:57:06.554Z,77.57
2019-02-28T19:59:35.250Z,77.19
2019-02-28T20:02:03.714Z,77.03
2019-02-28T20:04:32.093Z,78.01
2019-02-28T20:07:00.789Z,77.47
2019-02-28T20:09:29.471Z,77.06
2019-02-28T20:11:57.924Z,77.93
2019-02-28T20:14:26.654Z,76.40
2019-02-28T20:16:55.343Z,75.67
2019-02-28T20:19:24.012Z,76.44
2019-02-28T20:21:52.802Z,75.84
2019-02-28T20:24:21.242Z,76.29
2019-02-28T20:29:44.982Z,73.74
2019-02-28T20:32:13.761Z,74.53
2019-02-28T20:34:42.142Z,72.83
2019-02-28T20:37:10.846Z,72.56
2019-02-28T20:39:39.207Z,71.79
2019-02-28T20:42:07.657Z,71.26
2019-02-28T20:44:36.367Z,71.17
2019-02-28T20:47:05.159Z,70.98
2019-02-28T20:49:33.565Z,71.94
2019-02-28T20:52:01.935Z,70.92
2019-02-28T20:54:30.333Z,71.17
2019-02-28T20:56:58.787Z,70.92
2019-02-28T20:59:27.167Z,70.86
2019-02-28T21:01:55.584Z,70.90
2019-02-28T21:04:23.959Z,69.78
2019-02-28T21:06:52.702Z,69.61
2019-02-28T21:09:21.086Z,70.25
2019-02-28T21:11:49.867Z,70.60
2019-02-28T21:14:18.307Z,70.07
2019-02-28T21:16:47.039Z,70.19
2019-02-28T21:19:15.719Z,70.21
2019-02-28T21:22:24.265Z,70.33
2019-02-28T21:24:52.888Z,70.59
2019-02-28T21:27:21.267Z,70.82
2019-02-28T21:29:49.667Z,70.75
2019-02-28T21:32:18.049Z,70.15
2019-02-28T21:34:46.748Z,70.71
2019-02-28T21:37:15.435Z,71.01
2019-02-28T21:39:44.121Z,70.45
2019-02-28T21:42:12.596Z,70.36
2019-02-28T21:44:40.955Z,71.00
2019-02-28T21:47:09.664Z,71.19
2019-02-28T21:49:38.289Z,71.83
2019-02-28T21:52:06.736Z,72.36
2019-02-28T21:54:35.119Z,72.32
2019-02-28T21:57:22.887Z,72.10
2019-02-28T21:59:51.533Z,72.51
2019-02-28T22:02:20.214Z,72.68
2019-02-28T22:04:48.611Z,73.46
2019-02-28T22:07:17.291Z,73.03
2019-02-28T22:09:45.693Z,73.65
2019-02-28T22:12:14.072Z,73.50
2019-02-28T22:14:42.454Z,74.08
2019-02-28T22:17:10.854Z,74.08
2019-02-28T22:19:39.236Z,74.52
2019-02-28T22:22:07.635Z,75.15
2019-02-28T22:24:36.020Z,75.66
2019-02-28T22:27:04.486Z,76.28
2019-02-28T22:29:32.878Z,77.14
2019-02-28T22:37:29.835Z,79.00
2019-02-28T22:39:58.231Z,79.61
2019-02-28T22:42:26.623Z,79.91
2019-02-28T22:44:55.016Z,79.98
2019-02-28T22:47:23.399Z,81.03
2019-02-28T22:49:52.024Z,80.64
2019-02-28T22:52:20.760Z,81.05
2019-02-28T22:54:49.449Z,81.57
2019-02-28T22:57:18.133Z,81.82
2019-02-28T22:59:46.821Z,82.60
2019-02-28T23:02:15.222Z,82.85
2019-02-28T23:04:43.606Z,83.57
2019-02-28T23:07:12.003Z,83.92
2019-02-28T23:09:40.390Z,84.34
2019-02-28T23:12:08.766Z,84.72
2019-02-28T23:14:37.162Z,85.48
2019-02-28T23:17:05.534Z,86.82
2019-02-28T23:19:33.940Z,87.20
2019-02-28T23:22:02.316Z,88.81
2019-02-28T23:24:30.695Z,91.55
2019-02-28T23:27:18.427Z,92.06
2019-02-28T23:30:26.743Z,93.32
2019-02-28T23:33:14.889Z,94.21
2019-02-28T23:35:43.292Z,94.36
2019-02-28T23:38:11.672Z,94.58
2019-02-28T23:40:40.339Z,95.57
2019-02-28T23:43:08.727Z,95.98
2019-02-28T23:45:37.162Z,97.33
2019-02-28T23:48:05.632Z,96.97
2019-02-28T23:50:34.016Z,98.24
2019-02-28T23:53:02.407Z,100.00
2019-02-28T23:55:30.791Z,100.00
2019-02-28T23:57:59.195Z,100.00
